Dublin, PA (18917)

12:30 PM EST on December 22, 2014 (GMT -0500)
Bedminster, PA | Change Station
CLOSE
Current Station
Personal Weather Station
Location: Perkasie, PA
Elevation: 460 ft
Nearby Weather Stations

Elev 460 ft 40.42 °N, 75.19 °W | Updated 20 seconds ago

Overcast
Overcast
39.9 °F
Feels Like 40 °F
N
3.0
Wind Variable Wind from East
Gusts 3.0 mph

Today
High -- | Low -- °F
--% Chance of Precip.
Yesterday
High -- | Low -- °F
Precip. -- in
7:20 AM 4:38 PM
New Moon, 1% visible
Pressure 30.28 in
Visibility 10.0 miles
Clouds Overcast 1700 ft
Windchill 40 °F
Dew Point 33 °F
Humidity 76%
Rainfall 0.00 in
Snow Depth Not available.
UV 1 out of 12
Pollen .10 out of 12
Air Quality Not available.
Flu Activity Not available.
METAR KDYL 221654Z AUTO VRB03KT 10SM OVC017 04/00 A3026 RMK AO2 SLP253 T00390000

More Conditions Fewer Conditions

Pressure 30.28 in
Visibility 10.0 miles
Clouds Overcast 1700 ft
Windchill 40 °F
Dew Point 33 °F
Humidity 76%
Rainfall 0.00 in
Snow Depth Not available.
UV 1 out of 12
Pollen .10 out of 12
Air Quality Not available.
Flu Activity Not available.
METAR KDYL 221654Z AUTO VRB03KT 10SM OVC017 04/00 A3026 RMK AO2 SLP253 T00390000

More Conditions Fewer Conditions

10-Day Weather Forecast

Almanac

Astronomy

Dec. 22, 2014 Rise Set
Actual Time
Civil Twilight
Nautical Twilight
Astronomical Twilight
Moon
Length of Visible Light
Length of Day
Tomorrow will be .
, % of the Moon is Illuminated

Today's Extremes

State Highs State Lows

Community

WunderPhotos

Upload Photos

1,779,654 photos uploaded!

WunderBlogs® & News

Nearby

Air Quality

  Air Quality AQ Index Pollutant
Not available.

Snow Depth

Station Depth Elevation

Earthquake Activity

City Distance Mag. Time & Date
Minimum magnitude displayed is 2.5.

Coastal Water Temperatures

Place Temperature

Nearby Weather Stations